Time;durP1;ratioP1;P1;durP2;ratioP2;P2;SDS_P1;SDS_P2;PMS_P1;PMS_P2;Temp;Humidity;BMP_temperature;BMP_pressure;BME280_temperature;BME280_humidity;BME280_pressure;Samples;Min_cycle;Max_cycle;Signal;HPM_P1;HPM_P2
2022/03/18 00:01:21;;;;;;;17.33;9.48;;;3.40;99.90;;;;;;4960718;28;90872;-31
2022/03/18 00:03:46;;;;;;;18.08;9.35;;;3.40;99.90;;;;;;4960762;28;88439;-32
2022/03/18 00:06:16;;;;;;;13.10;8.50;;;3.40;99.90;;;;;;4960315;28;90608;-33
2022/03/18 00:08:42;;;;;;;16.90;9.35;;;3.30;99.90;;;;;;4959996;28;89828;-31
2022/03/18 00:11:08;;;;;;;12.10;8.57;;;3.20;99.90;;;;;;4960511;28;89666;-32
2022/03/18 00:13:34;;;;;;;16.30;9.52;;;3.20;99.90;;;;;;5001873;22;88830;-35
2022/03/18 00:16:00;;;;;;;23.95;8.82;;;3.20;99.90;;;;;;4941536;28;92096;-33
2022/03/18 00:18:26;;;;;;;17.48;8.45;;;3.10;99.90;;;;;;4941506;28;89622;-34
2022/03/18 00:20:52;;;;;;;17.52;9.80;;;3.10;99.90;;;;;;4940094;28;90481;-31
2022/03/18 00:23:17;;;;;;;15.13;10.00;;;3.00;99.90;;;;;;4941018;28;90648;-34
2022/03/18 00:25:43;;;;;;;12.55;9.02;;;3.00;99.90;;;;;;4939952;28;90145;-34
2022/03/18 00:28:09;;;;;;;17.70;11.48;;;3.00;99.90;;;;;;4941374;28;89883;-32
2022/03/18 00:30:34;;;;;;;22.50;11.20;;;3.00;99.90;;;;;;4940293;28;90111;-33
2022/03/18 00:33:00;;;;;;;22.52;10.52;;;3.00;99.90;;;;;;4939831;28;88984;-32
2022/03/18 00:35:26;;;;;;;20.38;10.95;;;3.00;99.90;;;;;;4939846;28;89990;-35
2022/03/18 00:37:52;;;;;;;18.77;10.15;;;3.00;99.90;;;;;;4939953;28;89827;-30
2022/03/18 00:40:17;;;;;;;14.73;10.00;;;3.00;99.90;;;;;;4940299;28;89026;-36
2022/03/18 00:42:43;;;;;;;20.67;10.48;;;2.90;99.90;;;;;;4940134;28;89660;-31
2022/03/18 00:45:09;;;;;;;17.00;10.35;;;2.90;99.90;;;;;;4939592;28;90009;-35
2022/03/18 00:53:03;;;;;;;18.73;10.70;;;2.70;99.90;;;;;;4940596;28;89134;-32
2022/03/18 00:55:29;;;;;;;16.63;9.90;;;2.70;99.90;;;;;;4939510;28;90498;-32
2022/03/18 00:57:55;;;;;;;20.27;9.38;;;2.70;99.90;;;;;;4940663;28;89599;-33
2022/03/18 01:00:21;;;;;;;15.15;9.98;;;2.60;99.90;;;;;;4940570;28;89510;-32
2022/03/18 01:02:46;;;;;;;18.80;11.05;;;2.60;99.90;;;;;;4938729;28;89266;-33
2022/03/18 01:05:12;;;;;;;10.85;9.00;;;2.60;99.90;;;;;;4939855;28;91109;-32
2022/03/18 01:07:38;;;;;;;15.02;10.00;;;2.50;99.90;;;;;;4939765;28;89051;-34
2022/03/18 01:10:04;;;;;;;18.67;10.18;;;2.50;99.90;;;;;;4939282;28;89400;-32
2022/03/18 01:12:29;;;;;;;19.67;10.00;;;2.50;99.90;;;;;;4939327;28;90420;-33
2022/03/18 01:14:55;;;;;;;17.77;10.20;;;2.50;99.90;;;;;;4938822;28;90131;-35
2022/03/18 01:17:20;;;;;;;13.88;9.05;;;2.40;99.90;;;;;;4939996;28;89057;-30
2022/03/18 01:19:46;;;;;;;21.15;10.77;;;2.40;99.90;;;;;;4939736;28;89629;-31
2022/03/18 01:22:12;;;;;;;13.13;9.35;;;2.40;99.90;;;;;;4940231;28;89474;-35
2022/03/18 01:24:37;;;;;;;15.38;9.98;;;2.30;99.90;;;;;;4939772;28;90083;-31
2022/03/18 01:27:04;;;;;;;14.27;10.73;;;2.30;99.90;;;;;;4939344;28;89778;-35
2022/03/18 01:29:30;;;;;;;12.38;9.57;;;2.30;99.90;;;;;;4939660;28;89839;-31
2022/03/18 01:31:56;;;;;;;22.65;10.98;;;2.20;99.90;;;;;;4939070;28;88761;-31
2022/03/18 01:34:21;;;;;;;18.35;10.10;;;2.20;99.90;;;;;;4939703;28;90261;-34
2022/03/18 01:36:47;;;;;;;16.27;10.38;;;2.20;99.90;;;;;;4937810;28;90353;-35
2022/03/18 01:39:13;;;;;;;16.83;10.38;;;2.30;99.90;;;;;;4939514;28;91061;-31
2022/03/18 01:41:39;;;;;;;17.23;9.52;;;2.20;99.90;;;;;;4939724;28;88741;-33
2022/03/18 01:44:10;;;;;;;15.98;10.30;;;2.20;99.90;;;;;;4939745;28;90231;-32
2022/03/18 01:46:37;;;;;;;18.27;10.75;;;2.20;99.90;;;;;;4939212;28;90049;-32
2022/03/18 01:49:03;;;;;;;19.23;10.50;;;2.20;99.90;;;;;;4938571;28;89582;-32
2022/03/18 01:51:29;;;;;;;19.38;11.60;;;2.20;99.90;;;;;;4939359;28;89650;-31
2022/03/18 01:56:40;;;;;;;16.85;11.23;;;2.20;99.90;;;;;;4938985;28;89778;-32
2022/03/18 01:59:06;;;;;;;22.63;12.02;;;2.30;99.90;;;;;;4939542;28;89540;-33
2022/03/18 02:01:33;;;;;;;21.25;13.10;;;2.40;99.90;;;;;;4938546;28;90904;-30
2022/03/18 02:03:58;;;;;;;16.33;12.50;;;2.50;99.90;;;;;;4939282;28;90704;-31
2022/03/18 02:06:24;;;;;;;18.08;12.55;;;2.50;99.90;;;;;;4938736;28;89965;-32
2022/03/18 02:08:50;;;;;;;17.88;13.73;;;2.60;99.90;;;;;;4938664;28;89387;-32
2022/03/18 02:11:16;;;;;;;26.58;14.90;;;2.60;99.90;;;;;;4939062;28;88802;-33
2022/03/18 02:13:41;;;;;;;19.30;14.43;;;2.60;99.90;;;;;;4938376;28;90080;-33
2022/03/18 02:16:07;;;;;;;26.27;13.65;;;2.70;99.90;;;;;;4940969;28;89463;-32
2022/03/18 02:18:32;;;;;;;19.63;14.32;;;2.80;99.90;;;;;;4942281;28;89819;-32
2022/03/18 02:20:58;;;;;;;23.05;13.70;;;2.80;99.90;;;;;;4942064;28;87363;-31
2022/03/18 02:23:24;;;;;;;23.83;14.55;;;2.90;99.90;;;;;;4942710;28;90226;-34
2022/03/18 02:25:49;;;;;;;19.98;14.68;;;2.90;99.90;;;;;;4941228;28;90557;-33
2022/03/18 02:28:15;;;;;;;22.83;15.35;;;3.00;99.90;;;;;;4942407;28;89816;-32
2022/03/18 02:30:41;;;;;;;24.90;13.65;;;3.00;99.90;;;;;;4941294;28;89322;-35
2022/03/18 02:33:06;;;;;;;23.30;14.48;;;3.10;99.90;;;;;;4942140;28;90109;-34
2022/03/18 02:35:32;;;;;;;26.05;13.85;;;3.10;99.90;;;;;;4941712;28;89659;-34
2022/03/18 02:37:59;;;;;;;20.48;12.45;;;3.10;99.90;;;;;;4941648;28;89959;-33
2022/03/18 02:40:26;;;;;;;16.42;12.15;;;3.10;99.90;;;;;;4942397;28;88389;-34
2022/03/18 02:42:52;;;;;;;14.10;12.05;;;3.20;99.90;;;;;;4941274;28;91878;-34
2022/03/18 02:45:18;;;;;;;15.43;11.15;;;3.20;99.90;;;;;;4941812;28;90306;-32
2022/03/18 02:47:43;;;;;;;21.13;11.63;;;3.10;99.90;;;;;;4941711;28;89572;-33
2022/03/18 02:50:10;;;;;;;15.70;11.63;;;3.10;99.90;;;;;;4941269;28;90192;-31
2022/03/18 02:52:35;;;;;;;17.17;11.55;;;3.00;99.90;;;;;;4941773;28;90267;-33
2022/03/18 02:55:01;;;;;;;26.02;11.13;;;3.00;99.90;;;;;;4941937;28;90603;-32
2022/03/18 02:57:27;;;;;;;19.58;10.18;;;2.90;99.90;;;;;;4941372;28;89594;-33
2022/03/18 02:59:52;;;;;;;20.40;10.45;;;2.80;99.90;;;;;;4942060;28;89487;-32
2022/03/18 03:02:18;;;;;;;18.90;10.65;;;2.70;99.90;;;;;;4941471;28;90594;-31
2022/03/18 03:10:12;;;;;;;16.35;9.73;;;2.60;99.90;;;;;;4942318;28;88203;-32
2022/03/18 03:12:40;;;;;;;17.05;9.68;;;2.50;99.90;;;;;;4942360;28;89326;-32
2022/03/18 03:15:06;;;;;;;20.03;10.57;;;2.50;99.90;;;;;;4941554;28;90429;-32
2022/03/18 03:17:32;;;;;;;18.38;12.00;;;2.40;99.90;;;;;;4941326;28;91091;-34
2022/03/18 03:19:58;;;;;;;15.30;10.57;;;2.30;99.90;;;;;;4941257;28;87847;-32
2022/03/18 03:22:23;;;;;;;13.20;10.40;;;2.40;99.90;;;;;;4940679;28;90303;-35
2022/03/18 03:24:49;;;;;;;20.67;10.60;;;2.30;99.90;;;;;;4941633;28;89799;-31
2022/03/18 03:27:14;;;;;;;20.08;11.10;;;2.30;99.90;;;;;;4940782;28;89572;-32
2022/03/18 03:29:40;;;;;;;23.63;11.07;;;2.20;99.90;;;;;;4941254;28;89725;-32
2022/03/18 03:32:05;;;;;;;17.75;10.90;;;2.20;99.90;;;;;;4941044;28;88922;-33
2022/03/18 03:34:32;;;;;;;14.85;10.27;;;2.20;99.90;;;;;;4941071;28;89852;-33
2022/03/18 03:36:58;;;;;;;16.63;11.25;;;2.20;99.90;;;;;;4941337;28;89050;-31
2022/03/18 03:39:24;;;;;;;14.10;11.02;;;2.10;99.90;;;;;;4940521;28;89798;-34
2022/03/18 03:41:50;;;;;;;15.30;11.43;;;2.10;99.90;;;;;;4941050;28;90545;-32
2022/03/18 03:44:16;;;;;;;19.05;11.43;;;2.10;99.90;;;;;;4940983;28;88392;-30
2022/03/18 03:46:42;;;;;;;15.02;10.98;;;2.10;99.90;;;;;;4940701;28;89497;-33
2022/03/18 03:49:07;;;;;;;20.40;11.07;;;2.00;99.90;;;;;;4941736;28;90124;-33
2022/03/18 03:51:34;;;;;;;17.95;11.45;;;2.00;99.90;;;;;;4940374;28;90769;-32
2022/03/18 03:53:59;;;;;;;22.33;12.50;;;2.00;99.90;;;;;;4940796;28;90012;-34
2022/03/18 03:56:25;;;;;;;16.10;11.45;;;2.00;99.90;;;;;;4940754;28;89409;-33
2022/03/18 03:58:50;;;;;;;22.45;11.75;;;2.00;99.90;;;;;;4940723;28;88207;-33
2022/03/18 04:01:16;;;;;;;19.77;11.60;;;2.00;99.90;;;;;;4940953;28;90267;-32
2022/03/18 04:03:42;;;;;;;15.27;11.18;;;2.00;99.90;;;;;;4939716;28;90515;-32
2022/03/18 04:06:07;;;;;;;19.85;12.05;;;2.00;99.90;;;;;;4940731;28;89878;-31
2022/03/18 04:08:33;;;;;;;18.15;11.55;;;2.00;99.90;;;;;;4940560;28;87956;-32
2022/03/18 04:10:58;;;;;;;13.70;10.68;;;2.00;99.90;;;;;;4940663;28;89265;-34
2022/03/18 04:13:24;;;;;;;15.20;11.80;;;2.00;99.90;;;;;;4940312;28;89656;-35
2022/03/18 04:15:49;;;;;;;14.48;11.88;;;2.00;99.90;;;;;;4940195;28;89651;-33
2022/03/18 04:18:15;;;;;;;21.23;13.05;;;2.00;99.90;;;;;;4940141;28;88858;-32
2022/03/18 04:20:41;;;;;;;15.23;11.02;;;2.00;99.90;;;;;;4939967;28;90151;-34
2022/03/18 04:23:06;;;;;;;15.60;11.60;;;2.00;99.90;;;;;;4941114;28;88590;-31
2022/03/18 04:25:32;;;;;;;20.67;12.75;;;2.00;99.90;;;;;;4940566;28;89593;-32
2022/03/18 04:27:58;;;;;;;12.57;11.10;;;2.10;99.90;;;;;;4940325;28;89766;-33
2022/03/18 04:30:24;;;;;;;17.08;11.52;;;2.20;99.90;;;;;;4939657;28;90291;-31
2022/03/18 04:32:50;;;;;;;20.80;11.82;;;2.20;99.90;;;;;;4939655;28;89867;-36
2022/03/18 04:35:15;;;;;;;12.45;10.63;;;2.30;99.90;;;;;;4940682;28;89994;-34
2022/03/18 04:37:42;;;;;;;14.40;10.27;;;2.30;99.90;;;;;;4939386;28;89146;-31
2022/03/18 04:40:12;;;;;;;14.95;10.73;;;2.40;99.90;;;;;;4940020;28;90378;-32
2022/03/18 04:42:38;;;;;;;14.30;9.70;;;2.50;99.90;;;;;;4939733;28;90088;-34
2022/03/18 04:45:05;;;;;;;14.25;9.48;;;2.60;99.90;;;;;;4941101;28;90719;-35
2022/03/18 04:47:33;;;;;;;16.30;9.70;;;2.70;99.90;;;;;;4940384;28;88834;-34
2022/03/18 04:50:00;;;;;;;14.17;10.03;;;2.80;99.90;;;;;;4940293;28;90314;-34
2022/03/18 04:52:26;;;;;;;11.73;10.05;;;2.80;99.90;;;;;;4939289;28;90718;-31
2022/03/18 04:54:51;;;;;;;14.77;10.52;;;2.90;99.90;;;;;;4939366;28;92396;-34
2022/03/18 04:57:20;;;;;;;14.57;10.65;;;2.90;99.90;;;;;;4939655;28;89002;-34
2022/03/18 04:59:47;;;;;;;18.00;10.75;;;2.90;99.90;;;;;;4940019;28;90256;-30
2022/03/18 05:02:14;;;;;;;17.20;10.05;;;3.00;99.90;;;;;;4939900;28;90165;-30
2022/03/18 05:04:41;;;;;;;17.63;9.65;;;3.00;99.90;;;;;;4939319;28;89416;-33
2022/03/18 05:07:08;;;;;;;23.92;10.77;;;2.90;99.90;;;;;;4940055;28;90497;-34
2022/03/18 05:09:33;;;;;;;13.27;9.77;;;2.90;99.90;;;;;;4940014;28;90502;-32
2022/03/18 05:11:59;;;;;;;11.77;9.88;;;3.00;99.90;;;;;;4939649;28;89254;-33
2022/03/18 05:14:25;;;;;;;13.05;10.18;;;2.90;99.90;;;;;;4940502;28;88558;-30
2022/03/18 05:16:52;;;;;;;13.13;11.15;;;2.90;99.90;;;;;;4938996;28;89698;-33
2022/03/18 05:19:17;;;;;;;12.43;10.20;;;2.80;99.90;;;;;;4939333;28;90132;-31
2022/03/18 05:21:43;;;;;;;16.27;11.18;;;2.70;99.90;;;;;;4939346;28;90104;-34
2022/03/18 05:24:09;;;;;;;14.20;10.55;;;2.70;99.90;;;;;;4939310;28;89744;-32
2022/03/18 05:26:36;;;;;;;17.08;11.30;;;2.60;99.90;;;;;;4939669;28;89131;-35
2022/03/18 05:29:03;;;;;;;11.90;10.70;;;2.60;99.90;;;;;;4939544;28;90752;-31
2022/03/18 05:31:31;;;;;;;15.57;10.00;;;2.50;99.90;;;;;;4938944;28;89751;-34
2022/03/18 05:33:57;;;;;;;16.73;12.82;;;2.40;99.90;;;;;;4939354;28;89045;-29
2022/03/18 05:36:22;;;;;;;17.13;12.60;;;2.40;99.90;;;;;;4939488;28;89626;-34
2022/03/18 05:38:48;;;;;;;16.92;11.07;;;2.30;99.90;;;;;;4938669;28;90505;-33
2022/03/18 05:41:14;;;;;;;17.67;11.30;;;2.30;99.90;;;;;;4938693;28;90669;-33
2022/03/18 05:43:40;;;;;;;15.13;12.35;;;2.20;99.90;;;;;;4938934;28;90579;-31
2022/03/18 05:46:07;;;;;;;16.55;11.45;;;2.20;99.90;;;;;;4939538;28;90068;-32
2022/03/18 05:48:32;;;;;;;16.90;12.88;;;2.20;99.90;;;;;;4939308;28;90239;-31
2022/03/18 05:51:00;;;;;;;14.82;12.60;;;2.30;99.90;;;;;;4940835;28;89533;-31
2022/03/18 05:53:26;;;;;;;25.65;14.02;;;2.20;99.90;;;;;;4942683;28;89944;-31
2022/03/18 05:58:36;;;;;;;17.48;14.02;;;2.30;99.90;;;;;;4942797;28;91742;-32
2022/03/18 06:01:02;;;;;;;22.45;15.65;;;2.40;99.90;;;;;;4942230;28;89712;-33
2022/03/18 06:03:28;;;;;;;21.42;16.38;;;2.40;99.90;;;;;;4942830;28;90091;-33
2022/03/18 06:05:53;;;;;;;18.63;16.35;;;2.50;99.90;;;;;;4941422;28;90115;-30
2022/03/18 06:13:48;;;;;;;27.33;17.00;;;2.70;99.90;;;;;;4941912;28;90168;-34
2022/03/18 06:16:13;;;;;;;19.27;14.38;;;2.70;99.90;;;;;;4942705;28;89250;-35
2022/03/18 06:18:39;;;;;;;22.85;13.27;;;2.70;99.90;;;;;;4941559;28;89840;-35
2022/03/18 06:21:08;;;;;;;24.80;14.25;;;2.70;99.90;;;;;;4942739;28;89679;-32
2022/03/18 06:23:34;;;;;;;22.85;12.90;;;2.50;99.90;;;;;;4942863;28;89557;-32
2022/03/18 06:26:01;;;;;;;26.30;13.68;;;2.40;99.90;;;;;;4941907;28;89992;-32
2022/03/18 06:28:27;;;;;;;15.00;12.40;;;2.30;99.90;;;;;;4942308;28;90157;-35
2022/03/18 06:30:53;;;;;;;20.30;14.85;;;2.30;99.90;;;;;;4941456;28;92937;-33
2022/03/18 06:33:19;;;;;;;19.33;16.33;;;2.30;99.90;;;;;;4941960;28;91052;-35
2022/03/18 06:35:44;;;;;;;17.80;14.20;;;2.30;99.90;;;;;;4942001;28;89001;-31
2022/03/18 06:38:10;;;;;;;16.15;13.57;;;2.30;99.90;;;;;;4941605;28;90112;-31
2022/03/18 06:40:36;;;;;;;18.13;13.55;;;2.30;99.90;;;;;;4941823;28;88294;-35
2022/03/18 06:43:01;;;;;;;21.15;13.15;;;2.30;99.90;;;;;;4942086;28;89706;-34
2022/03/18 06:45:27;;;;;;;15.30;12.27;;;2.30;99.90;;;;;;4941814;28;89687;-35
2022/03/18 06:47:53;;;;;;;17.15;13.15;;;2.30;99.90;;;;;;4940287;28;89069;-32
2022/03/18 06:50:19;;;;;;;14.38;12.18;;;2.30;99.90;;;;;;4941191;28;89426;-35
2022/03/18 06:52:44;;;;;;;19.85;11.95;;;2.40;99.90;;;;;;4941873;28;89707;-33
2022/03/18 06:55:10;;;;;;;21.73;12.55;;;2.40;99.90;;;;;;4941435;28;87856;-31
2022/03/18 06:57:36;;;;;;;16.05;13.63;;;2.50;99.90;;;;;;4941631;28;90599;-32
2022/03/18 07:00:02;;;;;;;18.77;13.30;;;2.60;99.90;;;;;;4941498;28;89616;-32
2022/03/18 07:02:28;;;;;;;17.95;13.60;;;2.70;99.90;;;;;;4940608;28;89349;-32
2022/03/18 07:04:55;;;;;;;20.80;13.10;;;2.80;99.90;;;;;;4941961;28;88075;-33
2022/03/18 07:07:21;;;;;;;19.27;14.45;;;2.90;99.90;;;;;;4941192;28;90261;-32
2022/03/18 07:09:46;;;;;;;15.60;12.70;;;3.00;99.90;;;;;;4941146;28;90204;-32
2022/03/18 07:12:12;;;;;;;20.00;13.38;;;3.10;99.90;;;;;;4941721;28;89498;-33
2022/03/18 07:14:37;;;;;;;22.42;14.77;;;3.10;99.90;;;;;;4940802;28;88298;-34
2022/03/18 07:19:47;;;;;;;25.60;16.10;;;3.50;99.90;;;;;;4940347;28;91491;-35
2022/03/18 07:22:13;;;;;;;15.30;13.40;;;3.70;99.90;;;;;;4940858;28;90281;-32
2022/03/18 07:24:39;;;;;;;19.73;14.05;;;3.80;99.90;;;;;;4941329;28;88343;-32
2022/03/18 07:27:05;;;;;;;18.55;15.02;;;4.10;99.90;;;;;;4940922;28;90369;-32
2022/03/18 07:29:30;;;;;;;18.17;13.70;;;4.30;99.90;;;;;;4940842;28;88910;-31
2022/03/18 07:31:57;;;;;;;24.70;18.75;;;4.50;99.90;;;;;;4940114;28;90405;-33
2022/03/18 07:34:22;;;;;;;25.27;20.05;;;4.80;99.90;;;;;;4939861;28;88052;-32
2022/03/18 07:36:48;;;;;;;22.73;18.27;;;5.10;99.90;;;;;;4941397;28;90916;-32
2022/03/18 07:39:14;;;;;;;32.88;20.42;;;5.50;99.90;;;;;;4941078;28;90046;-32
2022/03/18 07:41:40;;;;;;;23.23;20.42;;;5.80;99.90;;;;;;4940824;28;89689;-35
2022/03/18 07:44:06;;;;;;;23.08;19.08;;;6.10;99.90;;;;;;4940143;28;89440;-34
2022/03/18 07:46:31;;;;;;;25.45;19.48;;;6.30;99.90;;;;;;4940607;28;89940;-35
2022/03/18 07:48:57;;;;;;;24.77;20.90;;;6.60;99.90;;;;;;4940884;28;90436;-33
2022/03/18 07:51:22;;;;;;;26.20;19.10;;;6.80;99.90;;;;;;4938367;28;89444;-33
2022/03/18 07:53:48;;;;;;;21.63;18.27;;;7.00;99.90;;;;;;4939535;28;89206;-33
2022/03/18 07:56:13;;;;;;;29.20;19.50;;;7.00;99.90;;;;;;4939957;28;90237;-32
2022/03/18 07:58:39;;;;;;;23.88;19.95;;;7.10;99.90;;;;;;4958165;28;90151;-34
2022/03/18 08:01:08;;;;;;;22.90;20.45;;;7.20;99.90;;;;;;4957899;28;89889;-32
2022/03/18 08:03:33;;;;;;;22.63;20.10;;;7.40;99.90;;;;;;4957697;28;89810;-31
2022/03/18 08:05:59;;;;;;;31.45;20.77;;;7.70;99.90;;;;;;4957964;28;91462;-34
2022/03/18 08:08:25;;;;;;;21.80;19.58;;;7.90;99.90;;;;;;4957271;28;91509;-33
2022/03/18 08:10:51;;;;;;;21.58;18.80;;;8.00;99.90;;;;;;4957283;28;91251;-34
2022/03/18 08:13:17;;;;;;;24.42;21.00;;;8.10;99.90;;;;;;4957376;28;88468;-35
2022/03/18 08:15:44;;;;;;;24.27;20.20;;;8.20;99.90;;;;;;4957394;28;90509;-33
2022/03/18 08:18:10;;;;;;;26.00;20.30;;;8.50;99.90;;;;;;4958246;28;89877;-32
2022/03/18 08:20:40;;;;;;;23.27;18.98;;;8.70;99.90;;;;;;4957792;28;89722;-33
2022/03/18 08:23:12;;;;;;;24.92;18.77;;;8.90;99.90;;;;;;4958190;28;89300;-31
2022/03/18 08:25:38;;;;;;;22.25;19.02;;;9.10;99.90;;;;;;4958200;28;90661;-33
2022/03/18 08:28:05;;;;;;;21.75;19.00;;;9.40;99.90;;;;;;4957377;28;89804;-32
2022/03/18 08:30:31;;;;;;;24.30;20.70;;;9.50;99.90;;;;;;4957320;28;89246;-32
2022/03/18 08:32:57;;;;;;;22.10;19.23;;;9.70;99.90;;;;;;4956185;28;88796;-31
2022/03/18 08:35:22;;;;;;;24.02;18.67;;;9.90;99.90;;;;;;4957154;28;90914;-33
2022/03/18 08:37:57;;;;;;;25.75;18.83;;;10.00;99.90;;;;;;4957215;28;89618;-32
2022/03/18 08:40:28;;;;;;;25.02;18.38;;;10.20;99.90;;;;;;4957278;28;89691;-33
2022/03/18 08:42:56;;;;;;;29.00;19.77;;;10.30;99.90;;;;;;4957845;28;88929;-33
2022/03/18 08:45:22;;;;;;;24.70;18.13;;;10.30;99.90;;;;;;4957751;28;90476;-34
2022/03/18 08:47:47;;;;;;;21.52;17.52;;;10.50;99.90;;;;;;4939225;28;89818;-34
2022/03/18 08:50:14;;;;;;;22.58;18.25;;;10.60;99.90;;;;;;4957092;28;89656;-34
2022/03/18 08:52:40;;;;;;;23.05;19.90;;;10.70;99.90;;;;;;4956605;28;88680;-33
2022/03/18 08:55:07;;;;;;;31.92;19.02;;;10.70;99.90;;;;;;4939687;28;90621;-36
2022/03/18 08:57:35;;;;;;;26.65;19.52;;;10.70;99.90;;;;;;4924108;28;90677;-34
2022/03/18 09:00:01;;;;;;;;;;;10.70;99.90;;;;;;4934403;28;90014;-31
2022/03/18 09:02:26;;;;;;;24.92;18.85;;;10.80;99.90;;;;;;4938834;28;88895;-33
2022/03/18 09:04:52;;;;;;;28.70;19.40;;;11.00;99.90;;;;;;4918174;28;90193;-34
2022/03/18 09:07:18;;;;;;;32.15;18.88;;;11.10;99.90;;;;;;4918236;28;89476;-36
2022/03/18 09:09:44;;;;;;;23.17;16.95;;;11.20;99.90;;;;;;4918177;28;89879;-35
2022/03/18 09:12:10;;;;;;;31.60;17.70;;;11.20;99.90;;;;;;4918087;28;88272;-34
2022/03/18 09:14:36;;;;;;;23.45;16.77;;;11.20;99.90;;;;;;4916540;28;90299;-34
2022/03/18 09:17:01;;;;;;;32.10;18.35;;;11.10;99.90;;;;;;4918376;28;89720;-35
2022/03/18 09:19:27;;;;;;;30.77;17.23;;;11.10;99.90;;;;;;4918041;28;89790;-36
2022/03/18 09:21:53;;;;;;;23.67;17.05;;;11.10;99.90;;;;;;4915912;28;89106;-34
2022/03/18 09:24:18;;;;;;;23.25;17.45;;;11.20;99.90;;;;;;4917734;28;91597;-35
2022/03/18 09:26:44;;;;;;;26.48;16.52;;;11.20;99.90;;;;;;4917858;28;89746;-34
2022/03/18 09:29:11;;;;;;;26.88;16.77;;;11.20;99.90;;;;;;4918488;28;89082;-32
2022/03/18 09:31:37;;;;;;;24.42;17.25;;;11.20;99.90;;;;;;4917734;28;89663;-32
2022/03/18 09:34:03;;;;;;;21.65;16.42;;;11.40;99.90;;;;;;4918069;28;89215;-35
2022/03/18 09:36:31;;;;;;;24.38;17.02;;;11.30;99.90;;;;;;4917904;28;90181;-35
2022/03/18 09:38:56;;;;;;;27.02;15.98;;;11.30;99.90;;;;;;4917646;28;89742;-33
2022/03/18 09:41:22;;;;;;;28.52;18.38;;;11.50;99.90;;;;;;4918028;28;89517;-35
2022/03/18 09:43:48;;;;;;;22.88;17.83;;;11.50;99.90;;;;;;4917719;28;90224;-36
2022/03/18 09:46:15;;;;;;;29.63;16.45;;;11.50;99.90;;;;;;4916484;28;90607;-33
2022/03/18 09:48:40;;;;;;;25.20;18.25;;;11.60;99.90;;;;;;4917639;28;89863;-35
2022/03/18 09:51:06;;;;;;;27.90;18.48;;;11.60;99.90;;;;;;4917124;28;88109;-35
2022/03/18 09:53:36;;;;;;;31.42;19.00;;;11.60;99.90;;;;;;4917780;28;91195;-33
2022/03/18 09:56:03;;;;;;;27.40;19.23;;;11.70;99.90;;;;;;4917688;28;89327;-36
2022/03/18 09:58:29;;;;;;;28.08;18.35;;;11.80;99.90;;;;;;4917516;28;88670;-33
2022/03/18 10:01:01;;;;;;;27.10;17.27;;;11.90;99.90;;;;;;4917367;28;89393;-32
2022/03/18 10:03:41;;;;;;;24.42;18.90;;;11.90;99.90;;;;;;4917881;28;89890;-34
2022/03/18 10:06:08;;;;;;;21.83;17.50;;;12.10;99.90;;;;;;4917931;28;89323;-32
2022/03/18 10:08:39;;;;;;;24.52;17.52;;;12.00;99.90;;;;;;4916791;28;90593;-33
2022/03/18 10:11:18;;;;;;;20.77;18.55;;;12.00;99.90;;;;;;4917056;28;90575;-32
2022/03/18 10:13:49;;;;;;;22.45;17.05;;;12.10;99.90;;;;;;4916850;28;90510;-34
2022/03/18 10:16:33;;;;;;;26.67;18.10;;;12.20;99.90;;;;;;4917911;28;89758;-32
2022/03/18 10:19:01;;;;;;;27.30;17.33;;;12.20;99.90;;;;;;4942531;28;89327;-34
2022/03/18 10:21:28;;;;;;;25.75;17.08;;;12.30;99.90;;;;;;4942406;28;88255;-32
2022/03/18 10:24:27;;;;;;;21.03;16.50;;;12.30;99.90;;;;;;4935869;28;90106;-35
2022/03/18 10:27:12;;;;;;;25.98;17.92;;;12.40;99.90;;;;;;4931155;28;90304;-31
2022/03/18 10:29:54;;;;;;;23.83;17.48;;;12.50;99.90;;;;;;4936707;28;89582;-33
2022/03/18 10:32:22;;;;;;;30.38;19.40;;;12.60;99.90;;;;;;4936059;28;88958;-33
2022/03/18 10:37:47;;;;;;;19.65;16.50;;;12.90;99.90;;;;;;4938064;28;90661;-33
2022/03/18 10:40:14;;;;;;;23.13;16.33;;;13.10;99.90;;;;;;4939378;28;91013;-33
2022/03/18 10:42:40;;;;;;;26.20;16.83;;;13.20;99.90;;;;;;4938925;28;88843;-33
2022/03/18 10:45:08;;;;;;;26.67;18.42;;;13.10;99.90;;;;;;4939441;28;90600;-33
2022/03/18 10:47:40;;;;;;;19.50;16.35;;;13.10;99.90;;;;;;4939509;28;89844;-32
2022/03/18 10:50:11;;;;;;;20.40;15.57;;;13.10;99.90;;;;;;4938836;28;89410;-36
2022/03/18 10:52:49;;;;;;;17.98;14.60;;;13.10;99.90;;;;;;4939499;28;89697;-34
2022/03/18 10:55:17;;;;;;;24.43;17.07;;;13.10;99.90;;;;;;4939561;28;90572;-35
2022/03/18 10:57:48;;;;;;;;;;;13.10;99.90;;;;;;4939151;28;89884;-35
2022/03/18 11:00:14;;;;;;;20.33;15.85;;;13.20;99.90;;;;;;4941353;28;89146;-33
2022/03/18 11:02:42;;;;;;;27.92;15.40;;;13.30;99.90;;;;;;4938949;28;89940;-33
2022/03/18 11:05:10;;;;;;;24.85;14.70;;;13.50;99.90;;;;;;4938896;28;90322;-32
2022/03/18 11:07:41;;;;;;;;;;;13.50;99.90;;;;;;4939292;28;89708;-35
2022/03/18 11:12:55;;;;;;;20.57;16.30;;;13.60;99.90;;;;;;4938933;28;89487;-31
2022/03/18 11:15:24;;;;;;;26.45;16.50;;;13.80;99.90;;;;;;4939216;28;90303;-34
2022/03/18 11:17:52;;;;;;;22.25;14.65;;;13.80;99.90;;;;;;4938154;28;90307;-33
2022/03/18 11:20:21;;;;;;;20.58;15.90;;;13.90;99.90;;;;;;4939362;28;89934;-35
2022/03/18 11:22:48;;;;;;;21.50;12.82;;;13.80;99.90;;;;;;4938974;28;89881;-32
2022/03/18 11:25:15;;;;;;;13.80;12.43;;;13.80;99.90;;;;;;4938639;28;90542;-35
2022/03/18 11:27:44;;;;;;;27.35;13.75;;;13.90;99.90;;;;;;4937585;28;90567;-34
2022/03/18 11:30:34;;;;;;;21.63;12.77;;;13.90;99.90;;;;;;4955764;28;91289;-32
2022/03/18 11:33:06;;;;;;;21.05;13.77;;;13.80;99.90;;;;;;4957785;28;88218;-33
2022/03/18 11:35:50;;;;;;;15.60;12.73;;;13.90;99.90;;;;;;4958349;28;90400;-34
2022/03/18 11:38:17;;;;;;;19.90;11.95;;;14.00;99.90;;;;;;4957388;28;89616;-33
2022/03/18 11:40:59;;;;;;;15.85;10.90;;;14.00;99.90;;;;;;4958177;28;89715;-32
2022/03/18 11:43:28;;;;;;;24.05;11.00;;;14.00;99.90;;;;;;4958093;28;88994;-33
2022/03/18 11:46:13;;;;;;;;;;;14.00;99.90;;;;;;4959141;28;90328;-34
2022/03/18 11:48:50;;;;;;;21.40;13.10;;;14.10;99.90;;;;;;4959816;28;89584;-32
2022/03/18 11:51:28;;;;;;;17.42;11.07;;;14.20;99.90;;;;;;4957824;28;89492;-36
2022/03/18 11:53:55;;;;;;;12.80;9.25;;;14.40;99.90;;;;;;4957128;28;90088;-33
2022/03/18 11:56:23;;;;;;;13.55;9.40;;;14.40;99.90;;;;;;4958988;28;90976;-34
2022/03/18 11:58:49;;;;;;;13.50;9.82;;;14.50;99.90;;;;;;4958804;28;90245;-33
2022/03/18 12:01:37;;;;;;;14.48;11.13;;;14.50;99.90;;;;;;4957932;28;89561;-34
2022/03/18 12:04:04;;;;;;;;;;;14.50;99.90;;;;;;4958121;28;89576;-33
2022/03/18 12:06:30;;;;;;;10.75;9.23;;;14.60;99.90;;;;;;4959608;28;90542;-33
2022/03/18 12:08:58;;;;;;;13.18;8.75;;;14.60;99.90;;;;;;4957988;28;89768;-32
2022/03/18 12:11:25;;;;;;;;;;;14.50;99.90;;;;;;4958952;28;89836;-36
2022/03/18 12:13:51;;;;;;;18.88;10.77;;;14.50;99.90;;;;;;4992906;22;88461;-35
2022/03/18 12:16:19;;;;;;;20.55;10.50;;;14.50;99.90;;;;;;4957630;28;90203;-32
2022/03/18 12:18:45;;;;;;;19.45;10.63;;;14.50;99.90;;;;;;4956541;28;90205;-35
2022/03/18 12:21:11;;;;;;;16.40;10.40;;;14.50;99.90;;;;;;4957521;28;90863;-33
2022/03/18 12:23:37;;;;;;;12.10;10.88;;;14.60;99.90;;;;;;4957252;28;88219;-33
2022/03/18 12:26:06;;;;;;;14.93;10.35;;;14.50;99.90;;;;;;4955959;28;91688;-33
2022/03/18 12:28:49;;;;;;;18.23;9.68;;;14.60;99.90;;;;;;4956609;28;91082;-36
2022/03/18 12:31:15;;;;;;;9.73;8.80;;;14.60;99.90;;;;;;4957919;28;89352;-37
2022/03/18 12:33:41;;;;;;;13.40;10.23;;;14.60;99.90;;;;;;4958181;28;89373;-33
2022/03/18 12:36:08;;;;;;;9.98;8.60;;;14.50;99.90;;;;;;4956804;28;90588;-34
2022/03/18 12:38:33;;;;;;;11.60;9.15;;;14.40;99.90;;;;;;4957583;28;89507;-33
2022/03/18 12:40:59;;;;;;;10.68;6.00;;;14.40;99.90;;;;;;4957466;28;89102;-33
2022/03/18 12:43:27;;;;;;;10.23;5.18;;;14.50;95.30;;;;;;4956883;28;88723;-35
2022/03/18 12:45:52;;;;;;;9.82;7.25;;;14.60;99.90;;;;;;4957746;28;90620;-33
2022/03/18 12:48:21;;;;;;;17.70;7.82;;;14.60;96.90;;;;;;4958667;28;89965;-32
2022/03/18 12:50:57;;;;;;;11.20;7.93;;;14.70;99.50;;;;;;4976824;28;90234;-35
2022/03/18 12:53:27;;;;;;;11.60;7.30;;;14.90;99.40;;;;;;4977400;28;87431;-34
2022/03/18 12:55:55;;;;;;;14.32;6.72;;;14.90;93.60;;;;;;4976756;28;90287;-36
2022/03/18 12:58:22;;;;;;;14.63;6.88;;;14.80;95.70;;;;;;4976235;28;89653;-36
2022/03/18 13:00:51;;;;;;;9.05;7.20;;;14.80;90.60;;;;;;4967801;28;89666;-34
2022/03/18 13:03:20;;;;;;;10.00;7.70;;;14.70;92.50;;;;;;4957656;28;87409;-34
2022/03/18 13:05:46;;;;;;;;;;;14.60;94.50;;;;;;4957243;28;92114;-33
2022/03/18 13:08:12;;;;;;;12.00;8.60;;;14.70;94.90;;;;;;4956294;28;90947;-36